Time;durP1;ratioP1;P1;durP2;ratioP2;P2;SDS_P1;SDS_P2;PMS_P1;PMS_P2;Temp;Humidity;BMP_temperature;BMP_pressure;BME280_temperature;BME280_humidity;BME280_pressure;Samples;Min_cycle;Max_cycle;Signal;HPM_P1;HPM_P2
2024/03/04 00:00:36;;;;;;;14.20;3.13;;;8.40;99.90;;;;;;5045165;28;20028;-81
2024/03/04 00:03:02;;;;;;;12.50;4.03;;;8.40;99.90;;;;;;5043965;28;20489;-81
2024/03/04 00:05:34;;;;;;;9.18;3.13;;;8.40;99.90;;;;;;5043085;28;20025;-82
2024/03/04 00:07:59;;;;;;;14.35;3.55;;;8.40;99.90;;;;;;5041746;28;20014;-81
2024/03/04 00:10:25;;;;;;;9.75;3.17;;;;;;;;;;5043889;28;20025;-81
2024/03/04 00:12:55;;;;;;;9.55;2.65;;;8.40;99.90;;;;;;5043071;28;20030;-81
2024/03/04 00:15:22;;;;;;;9.82;3.03;;;8.50;99.90;;;;;;5043868;28;20021;-81
2024/03/04 00:17:50;;;;;;;12.10;3.15;;;8.40;99.90;;;;;;5044626;28;20013;-81
2024/03/04 00:20:16;;;;;;;9.10;2.40;;;8.40;99.90;;;;;;5043937;28;20013;-81
2024/03/04 00:22:45;;;;;;;8.38;2.55;;;8.40;99.90;;;;;;5043861;28;20021;-81
2024/03/04 00:25:15;;;;;;;12.60;2.75;;;8.90;99.90;;;;;;5042609;28;20037;-81
2024/03/04 00:27:45;;;;;;;11.25;2.92;;;8.50;99.90;;;;;;5042949;28;20028;-82
2024/03/04 00:30:12;;;;;;;11.57;2.30;;;8.50;99.90;;;;;;5043122;28;20113;-82
2024/03/04 00:32:38;;;;;;;7.13;2.13;;;8.50;99.90;;;;;;5043057;28;20022;-81
2024/03/04 00:35:09;;;;;;;8.50;2.17;;;;;;;;;;5042478;28;20083;-81
2024/03/04 00:37:35;;;;;;;7.38;2.10;;;8.50;99.90;;;;;;5042949;28;20049;-81
2024/03/04 00:40:05;;;;;;;7.70;2.10;;;8.40;99.90;;;;;;5043169;28;20024;-81
2024/03/04 00:42:32;;;;;;;10.05;2.55;;;8.50;99.90;;;;;;5043865;28;20025;-81
2024/03/04 00:44:58;;;;;;;11.00;2.33;;;;;;;;;;5042735;28;20024;-81
2024/03/04 00:47:24;;;;;;;11.25;2.60;;;8.50;99.90;;;;;;5041929;28;20030;-81
2024/03/04 00:49:50;;;;;;;8.73;1.50;;;8.40;99.90;;;;;;5041404;28;20017;-81
2024/03/04 00:52:17;;;;;;;8.70;2.47;;;8.40;99.90;;;;;;5042096;28;20097;-81
2024/03/04 00:54:43;;;;;;;8.15;2.08;;;;;;;;;;5042065;28;20028;-81
2024/03/04 00:57:09;;;;;;;10.15;1.58;;;;;;;;;;5043179;28;20077;-81
2024/03/04 00:59:37;;;;;;;7.28;0.90;;;8.40;99.90;;;;;;5042020;28;20530;-81
2024/03/04 01:02:06;;;;;;;7.28;1.65;;;8.40;99.90;;;;;;5042074;28;20568;-81
2024/03/04 01:04:32;;;;;;;;;;;8.40;99.90;;;;;;5042153;28;20021;-81
2024/03/04 01:06:58;;;;;;;11.43;1.52;;;8.40;99.90;;;;;;5041255;28;19996;-82
2024/03/04 01:09:23;;;;;;;10.95;1.65;;;8.40;99.90;;;;;;5040735;28;20475;-81
2024/03/04 01:11:49;;;;;;;7.70;0.98;;;;;;;;;;5041514;28;20044;-81
2024/03/04 01:14:15;;;;;;;8.40;1.77;;;8.40;99.90;;;;;;5041062;28;20168;-81
2024/03/04 01:16:41;;;;;;;12.80;1.85;;;8.40;99.90;;;;;;5042242;28;20029;-81
2024/03/04 01:19:07;;;;;;;10.88;1.70;;;8.30;99.90;;;;;;5042031;28;20025;-81
2024/03/04 01:21:33;;;;;;;6.22;1.58;;;8.40;99.90;;;;;;5041081;28;20024;-81
2024/03/04 01:23:58;;;;;;;9.90;1.80;;;8.30;99.90;;;;;;5041351;28;20128;-81
2024/03/04 01:26:24;;;;;;;7.28;1.40;;;8.30;99.90;;;;;;5041698;28;20033;-81
2024/03/04 01:28:50;;;;;;;8.30;2.00;;;8.30;99.90;;;;;;5041108;28;20040;-81
2024/03/04 01:31:18;;;;;;;10.60;2.47;;;8.30;99.90;;;;;;5041293;28;20397;-81
2024/03/04 01:33:48;;;;;;;8.35;0.80;;;8.30;99.90;;;;;;5042356;28;20010;-81
2024/03/04 01:36:13;;;;;;;5.65;1.48;;;8.30;99.90;;;;;;5041153;28;20076;-81
2024/03/04 01:38:41;;;;;;;10.70;2.13;;;10.80;99.90;;;;;;5041084;28;20033;-81
2024/03/04 01:41:07;;;;;;;6.18;1.23;;;8.30;99.90;;;;;;5043883;28;20382;-81
2024/03/04 01:43:33;;;;;;;6.55;0.98;;;;;;;;;;5043183;28;20026;-82
2024/03/04 01:45:59;;;;;;;12.32;2.05;;;8.30;99.90;;;;;;5042200;28;20574;-81
2024/03/04 01:48:26;;;;;;;7.95;1.35;;;8.30;99.90;;;;;;5042760;28;20029;-82
2024/03/04 01:50:56;;;;;;;7.65;1.15;;;8.30;99.90;;;;;;5042482;28;20022;-81
2024/03/04 01:53:23;;;;;;;3.50;0.88;;;8.30;99.90;;;;;;5041761;28;20025;-81
2024/03/04 01:56:02;;;;;;;5.13;1.13;;;9.10;99.90;;;;;;5040469;28;20018;-82
2024/03/04 01:58:30;;;;;;;6.25;1.50;;;8.20;99.90;;;;;;5041103;28;20381;-81
2024/03/04 02:00:59;;;;;;;7.72;1.27;;;8.20;99.90;;;;;;5041047;28;20029;-81
2024/03/04 02:03:26;;;;;;;9.45;1.15;;;8.30;99.90;;;;;;5043661;28;20025;-81
2024/03/04 02:05:53;;;;;;;5.00;1.40;;;8.20;99.90;;;;;;5041960;28;20026;-81
2024/03/04 02:08:19;;;;;;;6.30;1.50;;;8.30;99.90;;;;;;5044052;28;20029;-81
2024/03/04 02:10:51;;;;;;;4.57;1.55;;;8.30;99.90;;;;;;5043234;28;20029;-81
2024/03/04 02:13:18;;;;;;;5.35;1.33;;;8.20;99.90;;;;;;5043185;28;20388;-81
2024/03/04 02:15:44;;;;;;;12.40;1.70;;;8.20;99.90;;;;;;5041449;28;20032;-81
2024/03/04 02:18:12;;;;;;;9.13;1.98;;;8.20;99.90;;;;;;5042094;28;20018;-81
2024/03/04 02:20:39;;;;;;;5.47;1.92;;;8.20;99.90;;;;;;5043482;28;20018;-81
2024/03/04 02:23:07;;;;;;;12.35;2.03;;;8.20;99.90;;;;;;5042578;28;20101;-81
2024/03/04 02:25:34;;;;;;;12.13;2.83;;;8.20;99.90;;;;;;5042420;28;20032;-81
2024/03/04 02:28:02;;;;;;;6.30;1.70;;;8.20;99.90;;;;;;5041501;28;20032;-81
2024/03/04 02:30:31;;;;;;;10.60;2.42;;;8.30;99.90;;;;;;5042623;28;20017;-81
2024/03/04 02:32:58;;;;;;;8.55;1.38;;;8.20;99.90;;;;;;5041428;28;20025;-81
2024/03/04 02:35:27;;;;;;;9.40;1.73;;;8.20;99.90;;;;;;5043254;28;20020;-80
2024/03/04 02:37:53;;;;;;;8.18;1.30;;;8.20;99.90;;;;;;5041952;28;20021;-80
2024/03/04 02:40:19;;;;;;;6.30;1.17;;;8.20;99.90;;;;;;5042410;28;20025;-80
2024/03/04 02:42:45;;;;;;;6.38;1.10;;;8.10;99.90;;;;;;5042083;28;20018;-80
2024/03/04 02:45:10;;;;;;;11.30;1.67;;;8.10;99.90;;;;;;5042049;28;20037;-81
2024/03/04 02:47:36;;;;;;;11.13;1.85;;;8.10;99.90;;;;;;5044745;28;20026;-81
2024/03/04 02:50:03;;;;;;;8.63;1.20;;;8.00;99.90;;;;;;5045172;28;20017;-81
2024/03/04 02:52:28;;;;;;;4.18;0.65;;;8.00;99.90;;;;;;5048062;28;20021;-80
2024/03/04 02:54:54;;;;;;;5.35;0.75;;;8.10;99.90;;;;;;5051534;28;20085;-79
2024/03/04 02:57:20;;;;;;;5.35;1.13;;;8.00;99.90;;;;;;5050608;28;20018;-80
2024/03/04 02:59:45;;;;;;;6.20;1.33;;;7.90;99.90;;;;;;5043663;28;20473;-78
2024/03/04 03:02:12;;;;;;;8.77;0.85;;;7.90;99.90;;;;;;5045759;28;20038;-80
2024/03/04 03:04:37;;;;;;;4.88;0.88;;;7.90;99.90;;;;;;5046797;28;20437;-80
2024/03/04 03:07:03;;;;;;;7.85;0.77;;;7.90;99.90;;;;;;5046601;28;20022;-78
2024/03/04 03:09:29;;;;;;;5.88;0.95;;;7.90;99.90;;;;;;5041921;28;20029;-78
2024/03/04 03:11:55;;;;;;;5.03;0.90;;;7.90;99.90;;;;;;5043204;28;20029;-80
2024/03/04 03:14:21;;;;;;;5.88;0.70;;;7.90;99.90;;;;;;5045913;28;20017;-79
2024/03/04 03:16:48;;;;;;;9.73;1.08;;;7.90;99.90;;;;;;5043825;28;20055;-79
2024/03/04 03:19:25;;;;;;;6.22;0.40;;;7.90;99.90;;;;;;5046702;28;20017;-79
2024/03/04 03:21:52;;;;;;;2.92;0.82;;;7.80;99.90;;;;;;5049581;28;20019;-79
2024/03/04 03:24:22;;;;;;;4.15;0.70;;;7.80;99.90;;;;;;5050946;28;20025;-79
2024/03/04 03:26:48;;;;;;;4.13;0.40;;;8.10;99.90;;;;;;5050226;28;20093;-79
2024/03/04 03:29:14;;;;;;;1.92;0.35;;;7.80;99.90;;;;;;5049696;28;20029;-79
2024/03/04 03:31:41;;;;;;;3.85;0.20;;;7.80;99.90;;;;;;5050500;28;20030;-79
2024/03/04 03:34:08;;;;;;;2.60;0.28;;;7.90;99.90;;;;;;5049513;28;20021;-79
2024/03/04 03:36:35;;;;;;;2.58;0.35;;;7.80;99.90;;;;;;5050276;28;20552;-79
2024/03/04 03:39:04;;;;;;;4.03;0.28;;;7.80;99.90;;;;;;5048034;28;20030;-79
2024/03/04 03:41:32;;;;;;;5.18;0.45;;;;;;;;;;5049179;28;20021;-79
2024/03/04 03:43:57;;;;;;;2.83;0.40;;;7.80;99.90;;;;;;5049777;28;20029;-79
2024/03/04 03:46:23;;;;;;;5.70;0.75;;;7.90;99.90;;;;;;5049434;28;20016;-79
2024/03/04 03:48:49;;;;;;;6.18;0.50;;;7.80;99.90;;;;;;5051128;28;20057;-79
2024/03/04 03:51:14;;;;;;;1.23;0.20;;;7.80;99.90;;;;;;5050242;28;20064;-79
2024/03/04 03:53:40;;;;;;;2.13;0.60;;;7.80;99.90;;;;;;5048931;28;20020;-79
2024/03/04 03:56:06;;;;;;;2.95;0.45;;;7.70;99.90;;;;;;5050258;28;20420;-79
2024/03/04 03:58:32;;;;;;;3.35;1.05;;;7.80;99.90;;;;;;5048881;28;20088;-79
2024/03/04 04:00:58;;;;;;;4.03;0.60;;;7.80;99.90;;;;;;5039778;28;20032;-83
2024/03/04 04:03:23;;;;;;;5.07;0.47;;;7.70;99.90;;;;;;5041501;28;20488;-84
2024/03/04 04:05:49;;;;;;;5.38;0.70;;;7.80;99.90;;;;;;5038899;28;20093;-83
2024/03/04 04:08:15;;;;;;;3.22;0.50;;;;;;;;;;5040168;28;20041;-83
2024/03/04 04:10:41;;;;;;;4.93;0.88;;;;;;;;;;5040116;28;20507;-84
2024/03/04 04:13:07;;;;;;;5.30;0.30;;;7.70;99.90;;;;;;5040803;28;20080;-84
2024/03/04 04:15:33;;;;;;;2.13;0.88;;;;;;;;;;5040243;28;20112;-84
2024/03/04 04:17:59;;;;;;;3.40;0.65;;;;;;;;;;5041299;28;20034;-84
2024/03/04 04:20:25;;;;;;;3.35;0.75;;;7.70;99.90;;;;;;5037919;28;20060;-84
2024/03/04 04:22:52;;;;;;;5.65;1.35;;;;;;;;;;5039670;28;20060;-84
2024/03/04 04:25:17;;;;;;;6.05;1.02;;;7.70;99.90;;;;;;5039479;28;20029;-84
2024/03/04 04:27:44;;;;;;;7.10;0.55;;;7.70;99.90;;;;;;5040083;28;20021;-84
2024/03/04 04:30:11;;;;;;;3.97;0.70;;;7.70;99.90;;;;;;5040554;28;20029;-84
2024/03/04 04:32:37;;;;;;;7.78;0.60;;;7.60;99.90;;;;;;5038783;28;20017;-84
2024/03/04 04:35:03;;;;;;;6.28;0.45;;;7.70;99.90;;;;;;5040795;28;20028;-81
2024/03/04 04:37:29;;;;;;;2.05;0.38;;;7.60;99.90;;;;;;5042712;28;20022;-82
2024/03/04 04:39:55;;;;;;;3.53;0.22;;;7.60;99.90;;;;;;5041101;28;20542;-81
2024/03/04 04:42:22;;;;;;;4.35;0.43;;;7.60;99.90;;;;;;5039402;28;20067;-84
2024/03/04 04:44:48;;;;;;;6.65;0.60;;;7.70;99.90;;;;;;5038656;28;20120;-84
2024/03/04 04:47:14;;;;;;;2.05;0.73;;;7.70;99.90;;;;;;5039360;28;20052;-84
2024/03/04 04:49:40;;;;;;;1.98;0.10;;;7.70;99.90;;;;;;5038734;28;20520;-84
2024/03/04 04:52:06;;;;;;;3.30;0.28;;;;;;;;;;5038191;28;20029;-84
2024/03/04 04:54:32;;;;;;;1.33;0.28;;;7.70;99.90;;;;;;5038712;28;20029;-84
2024/03/04 04:56:58;;;;;;;6.43;1.73;;;;;;;;;;5039470;28;20025;-84
2024/03/04 04:59:24;;;;;;;1.50;0.20;;;7.70;99.90;;;;;;5039594;28;20124;-84
2024/03/04 05:01:50;;;;;;;6.97;0.77;;;;;;;;;;5039204;28;20105;-84
2024/03/04 05:04:18;;;;;;;3.50;0.22;;;7.70;99.90;;;;;;5039229;28;20037;-84
2024/03/04 05:06:44;;;;;;;2.97;0.38;;;7.70;99.90;;;;;;5038463;28;20022;-84
2024/03/04 05:09:10;;;;;;;6.78;0.77;;;7.70;99.90;;;;;;5039626;28;20013;-84
2024/03/04 05:11:36;;;;;;;6.10;0.20;;;7.70;99.90;;;;;;5038515;28;20036;-85
2024/03/04 05:14:02;;;;;;;2.03;0.20;;;7.60;99.90;;;;;;5038468;28;20112;-84
2024/03/04 05:16:29;;;;;;;3.10;0.00;;;;;;;;;;5038557;28;20036;-84
2024/03/04 05:18:56;;;;;;;3.22;0.20;;;7.60;99.90;;;;;;5039724;28;20485;-85
2024/03/04 05:21:22;;;;;;;2.15;0.38;;;7.60;99.90;;;;;;5039317;28;20018;-84
2024/03/04 05:23:48;;;;;;;4.13;0.10;;;;;;;;;;5040665;28;20489;-84
2024/03/04 05:26:14;;;;;;;1.92;0.00;;;7.50;99.90;;;;;;5039362;28;20569;-84
2024/03/04 05:28:40;;;;;;;4.50;0.00;;;7.50;99.90;;;;;;5038111;28;20045;-84
2024/03/04 05:31:06;;;;;;;1.33;0.30;;;7.40;99.90;;;;;;5038110;28;20025;-84
2024/03/04 05:33:33;;;;;;;4.65;0.10;;;7.30;99.90;;;;;;5038628;28;20016;-84
2024/03/04 05:36:04;;;;;;;5.30;0.55;;;7.30;99.90;;;;;;5038650;28;20029;-84
2024/03/04 05:38:31;;;;;;;3.67;0.10;;;7.30;99.90;;;;;;5037809;28;20018;-85
2024/03/04 05:40:57;;;;;;;5.15;0.17;;;7.30;99.90;;;;;;5037279;28;20029;-85
2024/03/04 05:43:23;;;;;;;5.10;0.40;;;;;;;;;;5038008;28;20497;-84
2024/03/04 05:45:49;;;;;;;3.03;0.10;;;;;;;;;;5038150;28;20052;-85
2024/03/04 05:48:15;;;;;;;6.47;0.03;;;7.10;99.90;;;;;;5038836;28;20030;-84
2024/03/04 05:50:41;;;;;;;4.68;0.10;;;;;;;;;;5037437;28;20103;-84
2024/03/04 05:53:07;;;;;;;2.22;0.00;;;7.10;99.90;;;;;;5039085;28;20028;-85
2024/03/04 05:55:32;;;;;;;2.50;0.20;;;7.10;99.90;;;;;;5039680;28;20026;-85
2024/03/04 05:57:58;;;;;;;3.45;0.47;;;7.10;99.90;;;;;;5039079;28;20052;-85
2024/03/04 06:00:24;;;;;;;3.58;0.00;;;7.00;99.90;;;;;;5039856;28;20021;-84
2024/03/04 06:02:49;;;;;;;5.15;0.20;;;7.00;99.90;;;;;;5039613;28;20037;-85
2024/03/04 06:05:15;;;;;;;3.75;0.03;;;7.00;99.90;;;;;;5038995;28;20034;-84
2024/03/04 06:07:41;;;;;;;0.52;0.00;;;7.00;99.90;;;;;;5038334;28;20571;-85
2024/03/04 06:10:08;;;;;;;3.30;0.43;;;7.00;99.90;;;;;;5037988;28;20025;-85
2024/03/04 06:12:34;;;;;;;4.60;0.20;;;6.90;99.90;;;;;;5039540;28;20021;-85
2024/03/04 06:14:59;;;;;;;3.40;0.10;;;6.90;99.90;;;;;;5038361;28;20021;-84
2024/03/04 06:17:29;;;;;;;1.75;0.50;;;;;;;;;;5038715;28;20025;-84
2024/03/04 06:19:54;;;;;;;6.13;0.10;;;6.90;99.90;;;;;;5039526;28;20021;-85
2024/03/04 06:22:20;;;;;;;12.60;1.55;;;6.80;99.90;;;;;;5039558;28;20029;-86
2024/03/04 06:24:46;;;;;;;2.65;0.00;;;6.80;99.90;;;;;;5043990;28;20026;-86
2024/03/04 06:27:11;;;;;;;3.90;0.00;;;6.80;99.90;;;;;;5043980;28;20033;-85
2024/03/04 06:29:37;;;;;;;0.32;0.20;;;6.80;99.90;;;;;;5042640;28;20029;-85
2024/03/04 06:32:03;;;;;;;4.55;0.00;;;6.80;99.90;;;;;;5041420;28;20034;-85
2024/03/04 06:34:30;;;;;;;0.63;0.00;;;6.80;99.90;;;;;;5041900;28;20021;-85
2024/03/04 06:36:57;;;;;;;5.32;1.02;;;;;;;;;;5041630;28;20014;-86
2024/03/04 06:39:23;;;;;;;3.55;0.00;;;6.80;99.90;;;;;;5042451;28;20021;-85
2024/03/04 06:41:49;;;;;;;4.38;0.55;;;;;;;;;;5042218;28;20590;-85
2024/03/04 06:44:15;;;;;;;1.45;0.17;;;6.80;99.90;;;;;;5041239;28;20025;-85
2024/03/04 06:46:41;;;;;;;2.22;0.20;;;;;;;;;;5040988;28;20033;-85
2024/03/04 06:49:07;;;;;;;4.90;1.02;;;6.90;99.90;;;;;;5041095;28;20026;-85
2024/03/04 06:51:35;;;;;;;4.47;0.00;;;7.00;99.90;;;;;;5040648;28;20022;-85
2024/03/04 06:54:05;;;;;;;2.87;0.10;;;7.00;99.90;;;;;;5042507;28;20105;-85
2024/03/04 06:56:31;;;;;;;2.35;0.00;;;7.00;99.90;;;;;;5042795;28;20018;-82
2024/03/04 06:59:00;;;;;;;19.67;1.45;;;7.10;99.90;;;;;;5045053;28;20032;-82
2024/03/04 07:01:26;;;;;;;;;;;7.10;99.90;;;;;;5044925;28;20087;-82
2024/03/04 07:03:53;;;;;;;2.05;0.05;;;7.80;99.90;;;;;;5045549;28;20284;-82
2024/03/04 07:06:19;;;;;;;3.58;0.20;;;7.20;99.90;;;;;;5045632;28;20547;-82
2024/03/04 07:08:45;;;;;;;2.28;0.00;;;7.20;99.90;;;;;;5045164;28;20025;-82
2024/03/04 07:11:15;;;;;;;6.63;0.47;;;7.30;99.90;;;;;;5045208;28;20032;-82
2024/03/04 07:13:42;;;;;;;0.85;0.35;;;7.30;99.90;;;;;;5043908;28;20024;-82
2024/03/04 07:16:08;;;;;;;0.98;0.10;;;7.30;99.90;;;;;;5043879;28;20017;-82
2024/03/04 07:18:34;;;;;;;7.43;1.00;;;7.40;99.90;;;;;;5045380;28;20044;-82
2024/03/04 07:21:01;;;;;;;4.28;0.20;;;8.90;99.90;;;;;;5044587;28;20025;-82
2024/03/04 07:23:27;;;;;;;2.35;0.10;;;7.50;99.90;;;;;;5043861;28;20021;-82
2024/03/04 07:25:53;;;;;;;3.22;0.00;;;7.50;99.90;;;;;;5044646;28;20029;-82
2024/03/04 07:28:19;;;;;;;6.10;0.00;;;7.60;99.90;;;;;;5044280;28;20029;-82
2024/03/04 07:30:45;;;;;;;3.55;0.10;;;7.70;99.90;;;;;;5044016;28;20032;-82
2024/03/04 07:33:12;;;;;;;5.60;0.20;;;7.70;99.90;;;;;;5044423;28;20053;-82
2024/03/04 07:35:43;;;;;;;2.60;0.10;;;7.80;99.90;;;;;;5043199;28;20048;-82
2024/03/04 07:38:10;;;;;;;1.45;0.08;;;;;;;;;;5045737;28;20029;-82
2024/03/04 07:40:36;;;;;;;3.00;0.10;;;7.90;99.90;;;;;;5044395;28;20026;-82
2024/03/04 07:43:02;;;;;;;3.22;0.00;;;8.00;99.90;;;;;;5044310;28;20384;-81
2024/03/04 07:45:29;;;;;;;3.42;0.40;;;8.20;99.90;;;;;;5046227;28;20151;-82
2024/03/04 07:47:55;;;;;;;2.85;0.10;;;8.40;99.90;;;;;;5046545;28;20048;-81
2024/03/04 07:50:22;;;;;;;1.13;0.20;;;8.40;99.90;;;;;;5045900;28;20477;-82
2024/03/04 07:52:48;;;;;;;1.95;0.25;;;8.40;99.90;;;;;;5044581;28;20133;-82
2024/03/04 07:55:15;;;;;;;3.38;0.20;;;8.50;99.90;;;;;;5044476;28;20018;-82
2024/03/04 07:57:42;;;;;;;6.70;0.10;;;8.50;99.90;;;;;;5044669;28;20080;-82
2024/03/04 08:00:13;;;;;;;3.60;0.00;;;8.50;99.90;;;;;;5046190;28;20025;-82
2024/03/04 08:02:41;;;;;;;2.28;0.10;;;8.50;99.90;;;;;;5044502;28;20037;-82
2024/03/04 08:05:07;;;;;;;3.30;0.52;;;8.60;99.90;;;;;;5047039;28;20053;-82
2024/03/04 08:07:32;;;;;;;1.35;0.00;;;8.70;99.90;;;;;;5045188;28;20036;-82
2024/03/04 08:09:58;;;;;;;4.07;0.43;;;8.70;99.90;;;;;;5047351;28;20025;-81
2024/03/04 08:12:23;;;;;;;5.07;0.20;;;8.70;99.90;;;;;;5045387;28;20021;-82
2024/03/04 08:14:49;;;;;;;0.75;0.00;;;8.80;99.90;;;;;;5045862;28;20017;-82
2024/03/04 08:17:17;;;;;;;3.28;0.05;;;8.90;99.90;;;;;;5044838;28;20489;-81
2024/03/04 08:19:43;;;;;;;1.75;0.10;;;8.90;99.90;;;;;;5045628;28;20021;-82
2024/03/04 08:22:09;;;;;;;6.35;0.10;;;9.00;99.90;;;;;;5048718;28;20034;-82
2024/03/04 08:24:35;;;;;;;1.20;0.00;;;9.10;99.90;;;;;;5048655;28;20021;-82
2024/03/04 08:27:00;;;;;;;4.68;0.05;;;9.10;99.90;;;;;;5048604;28;20026;-82
2024/03/04 08:29:26;;;;;;;0.47;0.00;;;9.20;99.90;;;;;;5048457;28;20053;-82
2024/03/04 08:31:52;;;;;;;0.95;0.05;;;9.20;99.90;;;;;;5048940;28;20029;-82
2024/03/04 08:34:19;;;;;;;1.80;0.00;;;9.20;99.90;;;;;;5049077;28;20014;-82
2024/03/04 08:36:45;;;;;;;4.30;0.10;;;;;;;;;;5048978;28;20017;-81
2024/03/04 08:39:16;;;;;;;0.55;0.00;;;9.30;99.90;;;;;;5048687;28;20048;-82
2024/03/04 08:41:46;;;;;;;2.58;0.10;;;9.30;99.90;;;;;;5047980;28;20025;-82
2024/03/04 08:44:16;;;;;;;2.63;0.32;;;9.50;99.90;;;;;;5049566;28;20045;-82
2024/03/04 08:46:43;;;;;;;5.82;0.25;;;9.30;99.90;;;;;;5047887;28;20038;-82
2024/03/04 08:49:09;;;;;;;5.35;0.10;;;9.30;99.90;;;;;;5048083;28;20025;-82
2024/03/04 08:51:35;;;;;;;2.72;0.60;;;9.30;99.90;;;;;;5048202;28;20080;-82
2024/03/04 08:54:01;;;;;;;3.05;0.00;;;9.50;99.90;;;;;;5048263;28;20017;-82
2024/03/04 08:56:27;;;;;;;3.88;0.13;;;9.50;99.90;;;;;;5048441;28;20059;-82
2024/03/04 08:58:53;;;;;;;5.65;0.52;;;;;;;;;;5048704;28;20084;-82
2024/03/04 09:01:20;;;;;;;1.95;0.47;;;9.60;99.90;;;;;;5048617;28;20080;-82
2024/03/04 09:03:46;;;;;;;5.05;0.10;;;9.70;99.90;;;;;;5050122;28;20021;-82
2024/03/04 09:06:20;;;;;;;9.00;1.90;;;9.70;99.90;;;;;;5048353;28;20032;-80
2024/03/04 09:08:46;;;;;;;1.40;0.08;;;9.70;99.90;;;;;;5049742;28;20063;-82
2024/03/04 09:11:13;;;;;;;3.78;0.10;;;9.80;99.90;;;;;;5049416;28;20029;-82
2024/03/04 09:13:39;;;;;;;7.97;0.85;;;9.80;99.90;;;;;;5048229;28;20377;-82
2024/03/04 09:16:06;;;;;;;2.53;0.00;;;9.80;99.90;;;;;;5049405;28;20025;-80
2024/03/04 09:18:33;;;;;;;1.05;0.10;;;9.90;99.90;;;;;;5050179;28;20021;-80
2024/03/04 09:20:59;;;;;;;1.77;0.10;;;9.90;99.90;;;;;;5042680;28;20249;-78
2024/03/04 09:23:26;;;;;;;3.40;0.00;;;10.00;99.90;;;;;;5046474;28;20500;-79
2024/03/04 09:25:54;;;;;;;1.23;0.20;;;10.10;99.90;;;;;;5038037;28;20393;-80
2024/03/04 09:28:20;;;;;;;1.27;0.00;;;10.20;99.90;;;;;;5049815;28;20092;-81
2024/03/04 09:30:46;;;;;;;3.53;0.00;;;10.20;99.90;;;;;;5042311;28;20469;-78
2024/03/04 09:33:12;;;;;;;0.30;0.00;;;10.30;99.90;;;;;;5041344;28;20022;-81
2024/03/04 09:35:38;;;;;;;0.22;0.00;;;10.30;99.90;;;;;;5048152;28;20025;-78
2024/03/04 09:38:08;;;;;;;3.28;0.10;;;10.30;99.90;;;;;;5045413;28;20021;-81
2024/03/04 09:40:34;;;;;;;0.47;0.20;;;;;;;;;;5048136;28;20021;-80
2024/03/04 09:43:02;;;;;;;1.70;0.30;;;10.40;99.90;;;;;;5042400;28;20060;-80
2024/03/04 09:45:28;;;;;;;1.90;0.00;;;;;;;;;;5048138;28;20044;-82
2024/03/04 09:47:58;;;;;;;5.50;0.13;;;10.50;99.90;;;;;;5047159;28;20101;-79
2024/03/04 09:50:25;;;;;;;1.60;0.30;;;10.60;99.90;;;;;;5047899;28;20025;-81
2024/03/04 09:52:54;;;;;;;1.85;0.05;;;10.70;99.90;;;;;;5046878;28;20029;-82
2024/03/04 09:55:20;;;;;;;1.15;0.38;;;10.70;99.90;;;;;;5047980;28;20013;-82
2024/03/04 09:57:46;;;;;;;2.38;0.45;;;10.60;99.90;;;;;;5049045;28;20033;-79
2024/03/04 10:00:16;;;;;;;2.67;0.17;;;10.60;99.90;;;;;;5051543;28;20014;-81
2024/03/04 10:02:45;;;;;;;2.05;0.00;;;10.60;99.90;;;;;;5051776;28;20059;-80
2024/03/04 10:05:11;;;;;;;;;;;10.50;99.90;;;;;;5043861;28;20116;-80
2024/03/04 10:07:37;;;;;;;1.58;0.00;;;10.50;99.90;;;;;;5040926;28;19905;-81
2024/03/04 10:10:04;;;;;;;3.03;0.00;;;10.40;99.90;;;;;;5039646;28;20100;-81
2024/03/04 10:12:30;;;;;;;0.40;0.00;;;10.40;99.90;;;;;;5039314;28;20068;-81
2024/03/04 10:15:09;;;;;;;2.67;0.00;;;10.30;99.90;;;;;;5039967;28;20026;-81
2024/03/04 10:17:37;;;;;;;0.10;0.00;;;10.40;99.90;;;;;;5041553;28;20021;-81
2024/03/04 10:20:08;;;;;;;0.52;0.10;;;10.40;99.90;;;;;;5040164;28;20055;-80
2024/03/04 10:22:36;;;;;;;1.00;0.38;;;10.60;99.90;;;;;;5039694;28;20462;-81
2024/03/04 10:25:07;;;;;;;4.40;0.80;;;10.80;99.90;;;;;;5041186;28;20055;-81
2024/03/04 10:27:34;;;;;;;0.73;0.20;;;10.80;99.90;;;;;;5039705;28;20025;-81
2024/03/04 10:30:13;;;;;;;0.38;0.00;;;10.80;99.90;;;;;;5041088;28;20555;-81
2024/03/04 10:33:08;;;;;;;1.75;0.00;;;10.80;99.90;;;;;;5039229;28;20465;-81
2024/03/04 10:35:34;;;;;;;3.70;0.10;;;11.20;99.90;;;;;;5030372;28;20120;-81
2024/03/04 10:38:02;;;;;;;1.20;0.00;;;11.30;99.90;;;;;;5039592;28;20393;-81
2024/03/04 10:40:29;;;;;;;0.22;0.00;;;11.30;99.90;;;;;;5038815;28;20032;-81
2024/03/04 10:43:00;;;;;;;0.30;0.00;;;11.30;99.90;;;;;;5038637;28;20036;-81
2024/03/04 10:45:31;;;;;;;3.67;0.30;;;11.50;99.90;;;;;;5038998;28;20029;-81
2024/03/04 10:48:01;;;;;;;1.83;0.10;;;11.60;99.90;;;;;;5041176;28;20072;-81
2024/03/04 10:50:29;;;;;;;0.50;0.10;;;11.60;99.90;;;;;;5040605;28;20038;-81
2024/03/04 10:52:55;;;;;;;0.82;0.20;;;11.60;99.90;;;;;;5040368;28;20030;-81
2024/03/04 10:55:21;;;;;;;4.05;0.82;;;11.60;99.90;;;;;;5040721;28;20085;-81
2024/03/04 10:57:52;;;;;;;1.75;0.28;;;11.50;99.90;;;;;;5040423;28;20044;-81
2024/03/04 11:00:25;;;;;;;0.73;0.40;;;11.50;99.90;;;;;;5039407;28;20021;-81
2024/03/04 11:03:00;;;;;;;0.82;0.00;;;11.50;99.90;;;;;;5039041;28;20091;-81
2024/03/04 11:05:34;;;;;;;0.95;0.20;;;11.50;99.90;;;;;;5038639;28;20393;-81
2024/03/04 11:08:10;;;;;;;0.50;0.10;;;11.50;99.90;;;;;;5038386;28;20041;-80
2024/03/04 11:10:45;;;;;;;1.30;0.10;;;11.60;99.90;;;;;;5039526;28;20032;-81
2024/03/04 11:13:35;;;;;;;1.40;0.00;;;11.60;99.90;;;;;;5039181;28;20071;-81
2024/03/04 11:16:06;;;;;;;0.93;0.32;;;11.70;99.90;;;;;;5041692;28;20026;-80
2024/03/04 11:19:09;;;;;;;2.72;0.47;;;11.60;99.90;;;;;;5039570;28;20091;-81
2024/03/04 11:21:37;;;;;;;2.20;0.32;;;11.70;99.90;;;;;;5039336;28;20025;-81
2024/03/04 11:24:06;;;;;;;4.78;0.45;;;11.60;99.90;;;;;;5039315;28;20576;-81
2024/03/04 11:26:33;;;;;;;0.10;0.10;;;11.70;99.90;;;;;;5039588;28;20032;-81
2024/03/04 11:29:00;;;;;;;1.70;0.10;;;11.80;99.90;;;;;;5039700;28;20096;-81
2024/03/04 11:31:29;;;;;;;3.00;0.28;;;11.90;99.90;;;;;;5040484;28;20021;-81
2024/03/04 11:34:12;;;;;;;0.20;0.10;;;11.90;99.90;;;;;;5039229;28;20014;-81
2024/03/04 11:36:39;;;;;;;2.03;0.05;;;12.00;99.90;;;;;;5039556;28;20480;-81
2024/03/04 11:39:16;;;;;;;1.55;0.38;;;12.10;99.90;;;;;;5039692;28;20017;-81
2024/03/04 11:41:51;;;;;;;0.73;0.00;;;12.10;99.90;;;;;;5039625;28;20033;-81
2024/03/04 11:44:23;;;;;;;0.47;0.00;;;12.20;99.90;;;;;;5038294;28;20029;-81
2024/03/04 11:46:49;;;;;;;0.75;0.00;;;12.20;99.90;;;;;;5037950;28;20033;-82
2024/03/04 11:49:23;;;;;;;0.10;0.00;;;12.20;99.90;;;;;;5038194;28;20547;-81
2024/03/04 11:52:06;;;;;;;0.90;0.00;;;12.30;99.90;;;;;;5037822;28;20056;-81
2024/03/04 11:54:34;;;;;;;0.38;0.00;;;12.60;99.90;;;;;;5036933;28;20028;-81
2024/03/04 11:57:01;;;;;;;0.10;0.00;;;12.70;99.90;;;;;;5036963;28;20370;-81
2024/03/04 11:59:28;;;;;;;0.40;0.00;;;12.80;99.90;;;;;;5037078;28;20021;-81
2024/03/04 12:01:53;;;;;;;0.30;0.00;;;13.00;99.90;;;;;;5038432;28;20496;-81
2024/03/04 12:04:22;;;;;;;0.90;0.00;;;13.00;99.90;;;;;;5037656;28;20071;-81
2024/03/04 12:06:48;;;;;;;1.75;0.20;;;13.10;99.90;;;;;;5037465;28;20021;-81
2024/03/04 12:09:25;;;;;;;1.75;0.00;;;13.00;99.90;;;;;;5037680;28;20425;-81
2024/03/04 12:11:55;;;;;;;0.90;0.32;;;13.10;99.90;;;;;;5036958;28;20029;-81
2024/03/04 12:14:21;;;;;;;1.00;0.00;;;13.10;99.90;;;;;;5037986;28;20392;-81
2024/03/04 12:16:46;;;;;;;2.33;0.00;;;13.40;99.90;;;;;;5037937;28;20026;-81
2024/03/04 12:19:12;;;;;;;6.28;0.47;;;13.50;99.90;;;;;;5037507;28;20025;-82
2024/03/04 12:21:38;;;;;;;2.00;0.00;;;13.50;99.90;;;;;;5038119;28;20100;-81
2024/03/04 12:24:04;;;;;;;3.72;0.30;;;13.80;99.90;;;;;;5036592;28;20025;-81
2024/03/04 12:26:29;;;;;;;1.00;0.00;;;13.70;99.90;;;;;;5036534;28;20067;-82
2024/03/04 12:29:04;;;;;;;0.75;0.10;;;13.70;99.90;;;;;;5036319;28;20022;-82
2024/03/04 12:31:39;;;;;;;0.57;0.00;;;13.70;99.90;;;;;;5040696;28;20036;-82
2024/03/04 12:34:06;;;;;;;0.00;0.00;;;16.00;99.90;;;;;;5040077;28;20531;-82
2024/03/04 12:36:32;;;;;;;0.35;0.00;;;14.00;99.90;;;;;;5040177;28;20014;-82
2024/03/04 12:39:00;;;;;;;0.32;0.00;;;13.90;99.90;;;;;;5041238;28;20017;-82
2024/03/04 12:41:26;;;;;;;0.35;0.00;;;;;;;;;;5039158;28;20033;-82
2024/03/04 12:43:55;;;;;;;4.20;0.00;;;;;;;;;;5040103;28;20025;-81
2024/03/04 12:46:21;;;;;;;0.00;0.00;;;;;;;;;;5039197;28;20022;-82
2024/03/04 12:48:48;;;;;;;0.10;0.00;;;;;;;;;;5041072;28;20028;-82
2024/03/04 12:51:15;;;;;;;0.80;0.57;;;;;;;;;;5039723;28;20021;-81
2024/03/04 12:53:44;;;;;;;0.43;0.10;;;;;;;;;;5041373;28;20075;-82
2024/03/04 12:56:10;;;;;;;0.30;0.03;;;;;;;;;;5039306;28;20029;-82
2024/03/04 12:58:36;;;;;;;0.30;0.00;;;;;;;;;;5038872;28;20396;-81
2024/03/04 13:01:14;;;;;;;0.55;0.10;;;14.60;99.90;;;;;;5040104;28;20033;-81
2024/03/04 13:03:43;;;;;;;0.63;0.00;;;;;;;;;;5040362;28;20022;-82
2024/03/04 13:06:13;;;;;;;0.45;0.00;;;;;;;;;;5040900;28;20025;-82
2024/03/04 13:08:39;;;;;;;0.73;0.00;;;;;;;;;;5040229;28;20032;-82